Unser neues Flugzeug

Liebe Piloten, Flugschüler und Charterer,

Wir freuen uns Euch unser neues Flugzeug präsentieren zu können.

Voraussichtlich schon Mitte März haben wir unsere Mooney Ovation 2 GX bei uns in Augsburg und für Euch zur Schulung und zum Charten zur Verfügung.

Die Mooney ist Baujahr 2006, hat u.a. eine Lederausstattung, Speed Breaks, TKS Enteisungsanlage und eine Sauerstoffanlage.

Selbstverständlich ist Sie genau wie unsere Cessna 172 SP D-ETTU mit Garmin G 1000 IFR ausgestattet.

Happy landings

Christian

 

 

Flugwetter Augsburg

[source: ADDS]
METAR
EDMA 171520Z 26006KT 9999 -RA BKN032 OVC045 08/07 Q1019 =
TAF EDMA 171400Z 1715/1724 28010KT 9999 SCT010 BKN020 TEMPO 1715/1721 BKN012 PROB30 TEMPO 1715/1721 RA
TAF
TAF EDMA 171400Z 1715/1724 28010KT 9999 SCT010 BKN020 TEMPO 1715/1721 BKN012 PROB30 TEMPO 1715/1721 RA =
Cookies erleichtern die Bereitstellung unserer Dienste. Mit der Nutzung unserer Dienste erklären Sie sich damit einverstanden, dass wir Cookies verwenden.
Weitere Informationen Ok